Aviation Digital Data Service (ADDS)

Output produced by METARs form (1342 UTC 21 November 2017)
found at http://www.aviationweather.gov/adds/metars/
 
KFIG 211254Z AUTO 00000KT 10SM CLR M04/M06 A2999 RMK AO2 SLP171 I1000 T10391056
KFIG 211154Z AUTO 00000KT 10SM CLR M04/M06 A2998 RMK AO2 SLP169 I1000 I6000 T10441061 10000 21044 56003
KFIG 211054Z AUTO 00000KT 10SM CLR M04/M06 A2998 RMK AO2 SLP168 T10391056
KFIG 210954Z AUTO 01003KT 10SM CLR M04/M05 A2998 RMK AO2 SLP166 T10441050
KFIG 210854Z AUTO 34005KT 10SM CLR M03/M06 A2999 RMK AO2 SLP169 T10331056 58010
KFIG 210754Z AUTO 35004KT 10SM CLR M03/M05 A3000 RMK AO2 SLP173 T10331050
KFIG 210654Z AUTO 00000KT 10SM CLR M03/M04 A3001 RMK AO2 SLP177 T10281044
KFIG 210554Z AUTO 21005KT 10SM CLR M01/M04 A3002 RMK AO2 SLP179 T10061044 10022 21011 58010
KFIG 210454Z AUTO 21005KT 10SM CLR M01/M04 A3003 RMK AO2 SLP184 T10061044 400561017
KFIG 210354Z AUTO 20004KT 10SM CLR M01/M04 A3004 RMK AO2 SLP190 T10111039
KFIG 210254Z AUTO 22005KT 10SM CLR 00/M04 A3005 RMK AO2 SLP192 T00001039 58003
KFIG 210154Z AUTO 21005KT 10SM CLR 01/M04 A3006 RMK AO2 SLP195 T00061044
KFIG 210054Z AUTO 21005KT 10SM CLR 01/M04 A3006 RMK AO2 SLP196 T00111039
KFIG 202354Z AUTO 21006KT 10SM CLR 02/M04 A3006 RMK AO2 SLP194 T00221044 10056 20022 53004
KFIG 202254Z AUTO 21006KT 10SM CLR 03/M04 A3006 RMK AO2 SLP193 T00281044
KFIG 202154Z AUTO 20007KT 10SM CLR 03/M04 A3005 RMK AO2 SLP188 T00331044
KFIG 202054Z AUTO 21009G15KT 10SM CLR 05/M05 A3005 RMK AO2 SLP188 T00501050 53003
KFIG 201954Z AUTO 23008KT 10SM CLR 05/M05 A3003 RMK AO2 SLP184 T00501050
KFIG 201854Z AUTO 24012G17KT 10SM CLR 05/M04 A3004 RMK AO2 SLP184 T00501044
KFIG 201754Z AUTO 24012G18KT 10SM CLR 04/M04 A3004 RMK AO2 SLP185 T00391044 10039 21017 58015
KFIG 201654Z AUTO 24011G18KT 10SM FEW070 02/M04 A3005 RMK AO2 SLP191 T00221044
KFIG 201611Z AUTO 23012G18KT 10SM SCT026 01/M05 A3007 RMK AO2 T00111050
KFIG 201554Z AUTO 25009G18KT 10SM BKN025 01/M04 A3008 RMK AO2 SLP201 T00111044
KFIG 201510Z AUTO 23011KT 10SM BKN024 OVC032 M01/M05 A3009 RMK AO2 T10061050
KFIG 201454Z AUTO 23012G19KT 10SM SCT026 OVC034 M01/M05 A3008 RMK AO2 SLP203 T10061050 51013
KFIG 201435Z AUTO 23009G19KT 10SM SCT024 OVC035 M01/M05 A3008 RMK AO2 T10061050
KFIG 201354Z AUTO 24012G19KT 10SM OVC025 M01/M06 A3008 RMK AO2 SLP203 T10111056
KFIG 201254Z AUTO 24011G17KT 10SM OVC026 M01/M06 A3006 RMK AO2 SLP196 T10111061
KFIG 201154Z AUTO 24007G18KT 10SM OVC027 M01/M06 A3004 RMK AO2 SLP190 60000 70010 T10111061 11011 21011 53024
KFIG 201115Z AUTO 24012G18KT 10SM OVC028 M01/M06 A3003 RMK AO2 T10111061
KFIG 201054Z AUTO 24012G21KT 10SM OVC032 M01/M07 A3002 RMK AO2 SLP182 T10111067
KFIG 200954Z AUTO 25010G21KT 10SM OVC044 M01/M06 A2999 RMK AO2 SLP171 T10111061
KFIG 200930Z AUTO 26009G18KT 10SM SCT029 OVC039 M01/M06 A2998 RMK AO2 T10111056
KFIG 200854Z AUTO 25012G17KT 10SM BKN029 OVC037 M01/M05 A2997 RMK AO2 SNE37 SLP163 P0000 60000 T10111050 51016
KFIG 200810Z AUTO 25009KT 7SM -SN FEW028 SCT035 OVC046 M01/M04 A2996 RMK AO2 P0000 T10111044
KFIG 200803Z AUTO 26008G16KT 6SM -SN FEW021 BKN029 OVC050 M01/M04 A2996 RMK AO2 P0000 T10111044
KFIG 200754Z AUTO 25006KT 5SM -SN SCT025 SCT030 OVC048 M01/M04 A2996 RMK AO2 SNB09 SLP160 P0000 T10111044
KFIG 200708Z AUTO 26013G21KT 9SM SCT025 BKN033 OVC060 M01/M05 A2995 RMK AO2 T10111050
KFIG 200654Z AUTO 24008KT 10SM BKN025 OVC033 M01/M05 A2994 RMK AO2 SNE20 SLP155 P0000 T10111050
KFIG 200632Z AUTO 24009G18KT 10SM BKN027 BKN034 OVC065 M01/M05 A2993 RMK AO2 SNE20 P0000 T10111050
KFIG 200554Z AUTO 25008G21KT 7SM -SN SCT024 BKN031 OVC041 M01/M04 A2992 RMK AO2 SLP145 P0002 60006 T10111039 10006 21017 51018
KFIG 200537Z AUTO 26008KT 3SM -SN BR SCT019 BKN024 OVC031 M01/M03 A2992 RMK AO2 P0002 T10111033
KFIG 200526Z AUTO 26008KT 230V300 1 3/4SM -SN BR SCT012 BKN018 OVC026 M01/M03 A2992 RMK AO2 P0002 T10111028
KFIG 200518Z AUTO 27006KT 1 1/4SM -SN BR BKN008 OVC018 M02/M03 A2992 RMK AO2 P0002 T10171028
KFIG 200454Z AUTO 24006KT 1/2SM SN FZFG VV007 M02/M02 A2991 RMK AO2 SNE02B07 SLP141 P0003 T10171022 400941017
KFIG 200433Z AUTO 27006KT 3/4SM -SN BR BKN013 OVC039 M01/M03 A2990 RMK AO2 SNE02B07 P0001 T10111028
KFIG 200430Z AUTO 28006KT 1SM -SN BR BKN017 OVC041 M01/M03 A2990 RMK AO2 SNE02B07 P0001 T10111033
KFIG 200421Z AUTO 29008KT 2 1/2SM -SN BKN029 BKN041 OVC050 M01/M04 A2990 RMK AO2 SNE02B07 P0000 T10061039
KFIG 200402Z AUTO 29009G17KT 9SM BKN033 BKN043 OVC050 M01/M04 A2989 RMK AO2 SNE02 P0000 T10061039
KFIG 200354Z AUTO 29010G15KT 3SM -SN BKN027 OVC033 M01/M04 A2989 RMK AO2 SLP134 P0001 T10061039
KFIG 200254Z AUTO 29009G19KT 6SM -SN FEW026 BKN034 OVC045 M01/M03 A2987 RMK AO2 SLP126 P0000 60000 T10061033 51017
KFIG 200250Z AUTO 28010G19KT 7SM -SN SCT031 BKN036 OVC045 00/M03 A2986 RMK AO2 P0000
KFIG 200214Z AUTO 28007G18KT 3SM -SN BR FEW013 SCT018 OVC024 M01/M03 A2985 RMK AO2 P0000 T10061028
KFIG 200154Z AUTO 32011G23KT 1 1/2SM -SN BR FEW013 BKN020 OVC045 M01/M03 A2984 RMK AO2 SNB39 SLP119 P0000 T10061028
KFIG 200150Z AUTO 32014G23KT 2SM -SN SCT018 BKN026 OVC045 00/M03 A2984 RMK AO2 SNB39 P0000